Lecko — PBKR — position and weather

sailwx.info

Track history (hours):
 
Tides and Currents Weather Stations Pressure Air Temp Water Temp Dewpoint Dewpoint Depression Visibility Wind Speed Wind Dir Waves Ship Positions

Lecko

Last reported at 2018-Feb-25 02:59 UTC. Time now 2018-Feb-25 03:25 UTC.
Position N 53°30' E 008°31'.

Length 89 m; draft 5.6 m.

Type: Cargo ship. MMSI: 244063000.

Date/timePositionNaut miles runAvg speedWind from/ knotsBaromVisibWave heightAir tempDewpointWater temp
2018-Feb-25 02:59N 53°30' E 008°31'0 0.0
2018-Feb-25 02:29N 53°30' E 008°31'0 0.0
2018-Feb-25 01:59N 53°30' E 008°31'0 0.0
2018-Feb-25 01:29N 53°30' E 008°31'0 0.0
2018-Feb-25 00:59N 53°30' E 008°31'0 0.0
2018-Feb-25 00:29N 53°30' E 008°31'0 0.0
2018-Feb-24 23:59N 53°30' E 008°31'0 0.0
2018-Feb-24 23:29N 53°30' E 008°31'0 0.0
2018-Feb-24 22:59N 53°30' E 008°31'0 0.0
2018-Feb-24 22:29N 53°30' E 008°31'0 0.0
2018-Feb-24 21:59N 53°30' E 008°31'0 0.0
2018-Feb-24 21:29N 53°30' E 008°31'0 0.0
2018-Feb-24 20:59N 53°30' E 008°31'0 0.0
2018-Feb-24 20:29N 53°30' E 008°31'0 0.0
2018-Feb-24 19:59N 53°30' E 008°31'0 0.0
2018-Feb-24 19:29N 53°30' E 008°31'0 0.0
2018-Feb-24 18:59N 53°30' E 008°31'0 0.0
2018-Feb-24 18:29N 53°30' E 008°31'0 0.0
2018-Feb-24 17:59N 53°30' E 008°31'0 0.0
2018-Feb-24 17:26N 53°30' E 008°31'0 0.0
2018-Feb-24 16:59N 53°30' E 008°31'0 0.0
2018-Feb-24 16:29N 53°30' E 008°31'0 0.0
2018-Feb-24 15:59N 53°30' E 008°31'0 0.0
2018-Feb-24 15:29N 53°30' E 008°31'0 0.0
2018-Feb-24 14:59N 53°30' E 008°31'0 0.0
2018-Feb-24 14:29N 53°30' E 008°31'0 0.0
2018-Feb-24 13:59N 53°30' E 008°31'0 0.0
2018-Feb-24 13:29N 53°30' E 008°31'0 0.0
2018-Feb-24 12:53N 53°30' E 008°31'0 0.0
2018-Feb-24 12:29N 53°30' E 008°31'0 0.0
2018-Feb-24 11:59N 53°30' E 008°31'0 0.0
2018-Feb-24 11:26N 53°30' E 008°31'0 0.0
2018-Feb-24 10:56N 53°30' E 008°31'0 0.0
2018-Feb-24 10:29N 53°30' E 008°31'0 0.0
2018-Feb-24 09:59N 53°30' E 008°31'0 0.0
2018-Feb-24 09:30N 53°30' E 008°31'0 0.0
2018-Feb-24 09:00N 53°30' E 008°31'0 0.0
2018-Feb-24 08:30N 53°30' E 008°31'1 1.6
2018-Feb-24 08:00N 53°31' E 008°32'3 5.4
2018-Feb-24 07:30N 53°33' E 008°33'3 6.9
2018-Feb-24 07:00N 53°36' E 008°30'4 7.0
2018-Feb-24 06:30N 53°38' E 008°25'4 7.1
2018-Feb-24 06:00N 53°41' E 008°21'4 7.2
2018-Feb-24 05:30N 53°43' E 008°17'4 7.0
2018-Feb-24 04:59N 53°45' E 008°11'3 6.3
2018-Feb-24 04:29N 53°48' E 008°08'4 7.4
2018-Feb-24 03:58N 53°50' E 008°03'6 8.9
2018-Feb-24 03:18N 53°52' E 007°53'2 6.3
2018-Feb-24 02:55N 53°54' E 007°52'1 1.2
2018-Feb-24 02:25N 53°55' E 007°52'0 0.1
2018-Feb-24 01:58N 53°55' E 007°52'0 0.0
2018-Feb-24 01:01N 53°55' E 007°52'0 0.1
2018-Feb-24 00:52N 53°55' E 007°52'0 0.1
2018-Feb-24 00:25N 53°55' E 007°52'0 0.1
2018-Feb-23 23:52N 53°55' E 007°52'0 0.1
2018-Feb-23 23:19N 53°55' E 007°52'0 0.0
2018-Feb-23 22:52N 53°55' E 007°52'0 0.0
2018-Feb-23 22:16N 53°55' E 007°52'0 0.1
2018-Feb-23 22:00N 53°55' E 007°52'0 0.0
2018-Feb-23 21:25N 53°55' E 007°52'0 0.0
2018-Feb-23 20:58N 53°55' E 007°52'0 0.0
2018-Feb-23 20:30N 53°55' E 007°52'0 0.3
2018-Feb-23 19:58N 53°55' E 007°51'55 8.0
2018-Feb-23 13:06N 54°48' E 007°23'1 9.7
2018-Feb-23 13:00N 54°48' E 007°23'5 9.8
2018-Feb-23 12:30N 54°53' E 007°22'5 9.9
2018-Feb-23 12:00N 54°58' E 007°22'5 9.8
2018-Feb-23 11:31N 55°03' E 007°21'5 9.7
2018-Feb-23 11:00N 55°08' E 007°20'5 9.6
2018-Feb-23 10:30N 55°13' E 007°19'5 9.4
2018-Feb-23 10:00N 55°18' E 007°19'5 9.4
2018-Feb-23 09:30N 55°22' E 007°18'5 9.2
2018-Feb-23 09:00N 55°27' E 007°18'4 8.2
2018-Feb-23 08:30N 55°31' E 007°18'2 3.7
2018-Feb-23 08:00N 55°33' E 007°18'4 9.1
2018-Feb-23 07:30N 55°37' E 007°19'5 9.6
2018-Feb-23 07:00N 55°42' E 007°22'167 9.7
2018-Feb-22 13:52N 57°49' E 010°38'510.2
2018-Feb-22 13:23N 57°49' E 010°47'410.1
2018-Feb-22 13:00N 57°48' E 010°53'5 9.9
2018-Feb-22 12:30N 57°46' E 011°02'510.6
2018-Feb-22 12:00N 57°43' E 011°11'510.7
2018-Feb-22 11:30N 57°41' E 011°20'511.1
2018-Feb-22 11:00N 57°39' E 011°30'510.2
2018-Feb-22 10:30N 57°37' E 011°38'5 9.7
2018-Feb-22 10:00N 57°40' E 011°46'1 1.7
2018-Feb-22 09:30N 57°40' E 011°47'0 0.0
2018-Feb-22 09:00N 57°40' E 011°47'0 0.2
2018-Feb-22 08:30N 57°40' E 011°47'1 2.5
2018-Feb-22 08:00N 57°41' E 011°49'4 7.7
2018-Feb-22 07:31N 57°42' E 011°56'3 5.9
2018-Feb-22 07:00N 57°44' E 011°60'3 6.5
2018-Feb-22 06:30N 57°47' E 012°00'3 5.9
2018-Feb-22 06:00N 57°50' E 012°01'4 7.9
2018-Feb-22 05:30N 57°54' E 012°03'4 8.2
2018-Feb-22 05:00N 57°58' E 012°07'4 8.3
2018-Feb-22 04:30N 58°02' E 012°09'5 9.3
2018-Feb-22 04:00N 58°06' E 012°09'2 4.5
2018-Feb-22 03:30N 58°08' E 012°07'1 2.5
2018-Feb-22 03:00N 58°09' E 012°08'5 9.2
2018-Feb-22 02:30N 58°14' E 012°11'3 6.4
2018-Feb-22 02:00N 58°16' E 012°15'0 0.2
2018-Feb-22 01:30N 58°16' E 012°15'0 0.5
2018-Feb-22 01:00N 58°16' E 012°16'1 1.5
2018-Feb-22 00:30N 58°17' E 012°17'3 5.4
2018-Feb-22 00:00N 58°19' E 012°19'2 3.6
2018-Feb-21 23:30N 58°20' E 012°21'1 1.8
2018-Feb-21 23:01N 58°21' E 012°20'2 3.9
2018-Feb-21 22:30N 58°23' E 012°19'4 8.9
2018-Feb-21 22:00N 58°27' E 012°24'510.1
2018-Feb-21 21:30N 58°30' E 012°31'510.4
2018-Feb-21 21:00N 58°34' E 012°37'  
2018-Feb-19 03:16N 58°33' E 012°37'310.6
2018-Feb-19 02:59N 58°31' E 012°33'5 9.9
2018-Feb-19 02:30N 58°27' E 012°26'5 9.2
2018-Feb-19 02:01N 58°24' E 012°20'3 5.3
2018-Feb-19 01:31N 58°22' E 012°19'2 3.3
2018-Feb-19 01:00N 58°20' E 012°21'1 2.5
2018-Feb-19 00:30N 58°19' E 012°20'3 6.0
2018-Feb-19 00:00N 58°17' E 012°17'1 2.1
2018-Feb-18 23:30N 58°16' E 012°16'0 0.5
2018-Feb-18 23:00N 58°16' E 012°15'0 0.2
2018-Feb-18 22:31N 58°16' E 012°15'2 3.2
2018-Feb-18 22:01N 58°15' E 012°13'4 7.9
2018-Feb-18 21:30N 58°12' E 012°08'4 7.5
2018-Feb-18 21:01N 58°08' E 012°07'1 1.4
2018-Feb-18 20:23N 58°07' E 012°07'3 5.7
2018-Feb-18 19:57N 58°05' E 012°09'4 7.1
2018-Feb-18 19:24N 58°01' E 012°08'3 7.2
2018-Feb-18 19:00N 57°58' E 012°08'3 6.5
2018-Feb-18 18:30N 57°56' E 012°04'4 8.1
2018-Feb-18 18:00N 57°52' E 012°01'3 5.7
2018-Feb-18 17:31N 57°49' E 012°01'3 5.6
2018-Feb-18 17:01N 57°46' E 012°00'3 5.5
2018-Feb-18 16:30N 57°44' E 011°60'3 6.8
2018-Feb-18 16:00N 57°42' E 011°54'5 9.2
2018-Feb-18 15:30N 57°40' E 011°47'4 8.0
2018-Feb-18 15:01N 57°37' E 011°41'4 8.1
2018-Feb-18 14:31N 57°34' E 011°38'4 8.0
2018-Feb-18 14:01N 57°30' E 011°39'4 7.8
2018-Feb-18 13:30N 57°26' E 011°42'4 8.0
2018-Feb-18 13:00N 57°22' E 011°45'4 7.8
2018-Feb-18 12:31N 57°19' E 011°47'4 8.1
2018-Feb-18 12:00N 57°15' E 011°50'4 8.3
2018-Feb-18 11:31N 57°11' E 011°53'58 7.4
2018-Feb-18 03:40N 56°16' E 012°25'3 8.7
2018-Feb-18 03:22N 56°14' E 012°27'3 8.5
2018-Feb-18 03:00N 56°11' E 012°30'4 8.6
2018-Feb-18 02:30N 56°07' E 012°33'5 9.3
2018-Feb-18 02:01N 56°04' E 012°39'5 9.8
2018-Feb-18 01:31N 55°59' E 012°42'4 8.7
2018-Feb-18 01:01N 55°55' E 012°44'4 8.6
2018-Feb-18 00:31N 55°51' E 012°43'4 8.3
2018-Feb-18 00:01N 55°47' E 012°42'5 9.0
2018-Feb-17 23:31N 55°42' E 012°41'4 8.9
2018-Feb-17 23:00N 55°38' E 012°42'4 8.7
2018-Feb-17 22:30N 55°33' E 012°42'4 8.5
2018-Feb-17 22:00N 55°29' E 012°43'4 8.8
2018-Feb-17 21:30N 55°25' E 012°42'4 8.6
2018-Feb-17 21:00N 55°20' E 012°41'4 7.7
2018-Feb-17 20:28N 55°17' E 012°46'4 8.6
2018-Feb-17 20:00N 55°16' E 012°53'4 8.6
2018-Feb-17 19:30N 55°16' E 013°00'38 8.5
2018-Feb-17 15:06N 55°14' E 014°06'1 8.5
2018-Feb-17 14:57N 55°14' E 014°08'4 8.3
2018-Feb-17 14:25N 55°14' E 014°16'4 8.5
2018-Feb-17 13:57N 55°17' E 014°20'5 8.6
2018-Feb-17 13:25N 55°21' E 014°25'5 8.7
2018-Feb-17 12:53N 55°24' E 014°31'4 8.6
2018-Feb-17 12:23N 55°27' E 014°37'5 8.6
2018-Feb-17 11:46N 55°30' E 014°45'3 8.4
2018-Feb-17 11:21N 55°31' E 014°50'5 8.4
2018-Feb-17 10:44N 55°34' E 014°58'10 8.3
2018-Feb-17 09:35N 55°39' E 015°13'1 8.4
2018-Feb-17 09:31N 55°39' E 015°13'4 8.3
2018-Feb-17 09:01N 55°42' E 015°20'4 8.3
2018-Feb-17 08:30N 55°44' E 015°26'4 8.4
2018-Feb-17 08:00N 55°46' E 015°33'4 8.3
2018-Feb-17 07:30N 55°48' E 015°39'4 8.2
2018-Feb-17 07:00N 55°50' E 015°45'4 8.3
2018-Feb-17 06:30N 55°52' E 015°52'4 8.2
2018-Feb-17 06:00N 55°54' E 015°58'4 8.3
2018-Feb-17 05:31N 55°56' E 016°04'4 8.2
2018-Feb-17 05:00N 55°58' E 016°11'4 8.2
2018-Feb-17 04:30N 56°00' E 016°17'4 8.3
2018-Feb-17 04:01N 56°03' E 016°23'4 8.4
2018-Feb-17 03:31N 56°05' E 016°30'4 8.4
2018-Feb-17 03:00N 56°07' E 016°36'4 8.3
2018-Feb-17 02:30N 56°09' E 016°42'4 8.3
2018-Feb-17 02:01N 56°13' E 016°46'4 8.4
2018-Feb-17 01:30N 56°17' E 016°49'282 8.0
2018-Feb-15 14:21N 59°22' E 023°29'  
Track history (hours):
 
Tides and Currents Weather Stations Pressure Air Temp Water Temp Dewpoint Dewpoint Depression Visibility Wind Speed Wind Dir Waves Ship Positions

Lecko

Last reported at 2018-Feb-25 02:59 UTC. Time now 2018-Feb-25 03:25 UTC.
Position N 53°30' E 008°31'.

Length 89 m; draft 5.6 m.

Type: Cargo ship. MMSI: 244063000.

Date/timePositionNaut miles runAvg speedWind from/ knotsBaromVisibWave heightAir tempDewpointWater temp
2018-Feb-25 02:59N 53°30' E 008°31'0 0.0
2018-Feb-25 02:29N 53°30' E 008°31'0 0.0
2018-Feb-25 01:59N 53°30' E 008°31'0 0.0
2018-Feb-25 01:29N 53°30' E 008°31'0 0.0
2018-Feb-25 00:59N 53°30' E 008°31'0 0.0
2018-Feb-25 00:29N 53°30' E 008°31'0 0.0
2018-Feb-24 23:59N 53°30' E 008°31'0 0.0
2018-Feb-24 23:29N 53°30' E 008°31'0 0.0
2018-Feb-24 22:59N 53°30' E 008°31'0 0.0
2018-Feb-24 22:29N 53°30' E 008°31'0 0.0
2018-Feb-24 21:59N 53°30' E 008°31'0 0.0
2018-Feb-24 21:29N 53°30' E 008°31'0 0.0
2018-Feb-24 20:59N 53°30' E 008°31'0 0.0
2018-Feb-24 20:29N 53°30' E 008°31'0 0.0
2018-Feb-24 19:59N 53°30' E 008°31'0 0.0
2018-Feb-24 19:29N 53°30' E 008°31'0 0.0
2018-Feb-24 18:59N 53°30' E 008°31'0 0.0
2018-Feb-24 18:29N 53°30' E 008°31'0 0.0
2018-Feb-24 17:59N 53°30' E 008°31'0 0.0
2018-Feb-24 17:26N 53°30' E 008°31'0 0.0
2018-Feb-24 16:59N 53°30' E 008°31'0 0.0
2018-Feb-24 16:29N 53°30' E 008°31'0 0.0
2018-Feb-24 15:59N 53°30' E 008°31'0 0.0
2018-Feb-24 15:29N 53°30' E 008°31'0 0.0
2018-Feb-24 14:59N 53°30' E 008°31'0 0.0
2018-Feb-24 14:29N 53°30' E 008°31'0 0.0
2018-Feb-24 13:59N 53°30' E 008°31'0 0.0
2018-Feb-24 13:29N 53°30' E 008°31'0 0.0
2018-Feb-24 12:53N 53°30' E 008°31'0 0.0
2018-Feb-24 12:29N 53°30' E 008°31'0 0.0
2018-Feb-24 11:59N 53°30' E 008°31'0 0.0
2018-Feb-24 11:26N 53°30' E 008°31'0 0.0
2018-Feb-24 10:56N 53°30' E 008°31'0 0.0
2018-Feb-24 10:29N 53°30' E 008°31'0 0.0
2018-Feb-24 09:59N 53°30' E 008°31'0 0.0
2018-Feb-24 09:30N 53°30' E 008°31'0 0.0
2018-Feb-24 09:00N 53°30' E 008°31'0 0.0
2018-Feb-24 08:30N 53°30' E 008°31'1 1.6
2018-Feb-24 08:00N 53°31' E 008°32'3 5.4
2018-Feb-24 07:30N 53°33' E 008°33'3 6.9
2018-Feb-24 07:00N 53°36' E 008°30'4 7.0
2018-Feb-24 06:30N 53°38' E 008°25'4 7.1
2018-Feb-24 06:00N 53°41' E 008°21'4 7.2
2018-Feb-24 05:30N 53°43' E 008°17'4 7.0
2018-Feb-24 04:59N 53°45' E 008°11'3 6.3
2018-Feb-24 04:29N 53°48' E 008°08'4 7.4
2018-Feb-24 03:58N 53°50' E 008°03'6 8.9
2018-Feb-24 03:18N 53°52' E 007°53'2 6.3
2018-Feb-24 02:55N 53°54' E 007°52'1 1.2
2018-Feb-24 02:25N 53°55' E 007°52'0 0.1
2018-Feb-24 01:58N 53°55' E 007°52'0 0.0
2018-Feb-24 01:01N 53°55' E 007°52'0 0.1
2018-Feb-24 00:52N 53°55' E 007°52'0 0.1
2018-Feb-24 00:25N 53°55' E 007°52'0 0.1
2018-Feb-23 23:52N 53°55' E 007°52'0 0.1
2018-Feb-23 23:19N 53°55' E 007°52'0 0.0
2018-Feb-23 22:52N 53°55' E 007°52'0 0.0
2018-Feb-23 22:16N 53°55' E 007°52'0 0.1
2018-Feb-23 22:00N 53°55' E 007°52'0 0.0
2018-Feb-23 21:25N 53°55' E 007°52'0 0.0
2018-Feb-23 20:58N 53°55' E 007°52'0 0.0
2018-Feb-23 20:30N 53°55' E 007°52'0 0.3
2018-Feb-23 19:58N 53°55' E 007°51'55 8.0
2018-Feb-23 13:06N 54°48' E 007°23'1 9.7
2018-Feb-23 13:00N 54°48' E 007°23'5 9.8
2018-Feb-23 12:30N 54°53' E 007°22'5 9.9
2018-Feb-23 12:00N 54°58' E 007°22'5 9.8
2018-Feb-23 11:31N 55°03' E 007°21'5 9.7
2018-Feb-23 11:00N 55°08' E 007°20'5 9.6
2018-Feb-23 10:30N 55°13' E 007°19'5 9.4
2018-Feb-23 10:00N 55°18' E 007°19'5 9.4
2018-Feb-23 09:30N 55°22' E 007°18'5 9.2
2018-Feb-23 09:00N 55°27' E 007°18'4 8.2
2018-Feb-23 08:30N 55°31' E 007°18'2 3.7
2018-Feb-23 08:00N 55°33' E 007°18'4 9.1
2018-Feb-23 07:30N 55°37' E 007°19'5 9.6
2018-Feb-23 07:00N 55°42' E 007°22'167 9.7
2018-Feb-22 13:52N 57°49' E 010°38'510.2
2018-Feb-22 13:23N 57°49' E 010°47'410.1
2018-Feb-22 13:00N 57°48' E 010°53'5 9.9
2018-Feb-22 12:30N 57°46' E 011°02'510.6
2018-Feb-22 12:00N 57°43' E 011°11'510.7
2018-Feb-22 11:30N 57°41' E 011°20'511.1
2018-Feb-22 11:00N 57°39' E 011°30'510.2
2018-Feb-22 10:30N 57°37' E 011°38'5 9.7
2018-Feb-22 10:00N 57°40' E 011°46'1 1.7
2018-Feb-22 09:30N 57°40' E 011°47'0 0.0
2018-Feb-22 09:00N 57°40' E 011°47'0 0.2
2018-Feb-22 08:30N 57°40' E 011°47'1 2.5
2018-Feb-22 08:00N 57°41' E 011°49'4 7.7
2018-Feb-22 07:31N 57°42' E 011°56'3 5.9
2018-Feb-22 07:00N 57°44' E 011°60'3 6.5
2018-Feb-22 06:30N 57°47' E 012°00'3 5.9
2018-Feb-22 06:00N 57°50' E 012°01'4 7.9
2018-Feb-22 05:30N 57°54' E 012°03'4 8.2
2018-Feb-22 05:00N 57°58' E 012°07'4 8.3
2018-Feb-22 04:30N 58°02' E 012°09'5 9.3
2018-Feb-22 04:00N 58°06' E 012°09'2 4.5
2018-Feb-22 03:30N 58°08' E 012°07'1 2.5
2018-Feb-22 03:00N 58°09' E 012°08'5 9.2
2018-Feb-22 02:30N 58°14' E 012°11'3 6.4
2018-Feb-22 02:00N 58°16' E 012°15'0 0.2
2018-Feb-22 01:30N 58°16' E 012°15'0 0.5
2018-Feb-22 01:00N 58°16' E 012°16'1 1.5
2018-Feb-22 00:30N 58°17' E 012°17'3 5.4
2018-Feb-22 00:00N 58°19' E 012°19'2 3.6
2018-Feb-21 23:30N 58°20' E 012°21'1 1.8
2018-Feb-21 23:01N 58°21' E 012°20'2 3.9
2018-Feb-21 22:30N 58°23' E 012°19'4 8.9
2018-Feb-21 22:00N 58°27' E 012°24'510.1
2018-Feb-21 21:30N 58°30' E 012°31'510.4
2018-Feb-21 21:00N 58°34' E 012°37'  
2018-Feb-19 03:16N 58°33' E 012°37'310.6
2018-Feb-19 02:59N 58°31' E 012°33'5 9.9
2018-Feb-19 02:30N 58°27' E 012°26'5 9.2
2018-Feb-19 02:01N 58°24' E 012°20'3 5.3
2018-Feb-19 01:31N 58°22' E 012°19'2 3.3
2018-Feb-19 01:00N 58°20' E 012°21'1 2.5
2018-Feb-19 00:30N 58°19' E 012°20'3 6.0
2018-Feb-19 00:00N 58°17' E 012°17'1 2.1
2018-Feb-18 23:30N 58°16' E 012°16'0 0.5
2018-Feb-18 23:00N 58°16' E 012°15'0 0.2
2018-Feb-18 22:31N 58°16' E 012°15'2 3.2
2018-Feb-18 22:01N 58°15' E 012°13'4 7.9
2018-Feb-18 21:30N 58°12' E 012°08'4 7.5
2018-Feb-18 21:01N 58°08' E 012°07'1 1.4
2018-Feb-18 20:23N 58°07' E 012°07'3 5.7
2018-Feb-18 19:57N 58°05' E 012°09'4 7.1
2018-Feb-18 19:24N 58°01' E 012°08'3 7.2
2018-Feb-18 19:00N 57°58' E 012°08'3 6.5
2018-Feb-18 18:30N 57°56' E 012°04'4 8.1
2018-Feb-18 18:00N 57°52' E 012°01'3 5.7
2018-Feb-18 17:31N 57°49' E 012°01'3 5.6
2018-Feb-18 17:01N 57°46' E 012°00'3 5.5
2018-Feb-18 16:30N 57°44' E 011°60'3 6.8
2018-Feb-18 16:00N 57°42' E 011°54'5 9.2
2018-Feb-18 15:30N 57°40' E 011°47'4 8.0
2018-Feb-18 15:01N 57°37' E 011°41'4 8.1
2018-Feb-18 14:31N 57°34' E 011°38'4 8.0
2018-Feb-18 14:01N 57°30' E 011°39'4 7.8
2018-Feb-18 13:30N 57°26' E 011°42'4 8.0
2018-Feb-18 13:00N 57°22' E 011°45'4 7.8
2018-Feb-18 12:31N 57°19' E 011°47'4 8.1
2018-Feb-18 12:00N 57°15' E 011°50'4 8.3
2018-Feb-18 11:31N 57°11' E 011°53'58 7.4
2018-Feb-18 03:40N 56°16' E 012°25'3 8.7
2018-Feb-18 03:22N 56°14' E 012°27'3 8.5
2018-Feb-18 03:00N 56°11' E 012°30'4 8.6
2018-Feb-18 02:30N 56°07' E 012°33'5 9.3
2018-Feb-18 02:01N 56°04' E 012°39'5 9.8
2018-Feb-18 01:31N 55°59' E 012°42'4 8.7
2018-Feb-18 01:01N 55°55' E 012°44'4 8.6
2018-Feb-18 00:31N 55°51' E 012°43'4 8.3
2018-Feb-18 00:01N 55°47' E 012°42'5 9.0
2018-Feb-17 23:31N 55°42' E 012°41'4 8.9
2018-Feb-17 23:00N 55°38' E 012°42'4 8.7
2018-Feb-17 22:30N 55°33' E 012°42'4 8.5
2018-Feb-17 22:00N 55°29' E 012°43'4 8.8
2018-Feb-17 21:30N 55°25' E 012°42'4 8.6
2018-Feb-17 21:00N 55°20' E 012°41'4 7.7
2018-Feb-17 20:28N 55°17' E 012°46'4 8.6
2018-Feb-17 20:00N 55°16' E 012°53'4 8.6
2018-Feb-17 19:30N 55°16' E 013°00'38 8.5
2018-Feb-17 15:06N 55°14' E 014°06'1 8.5
2018-Feb-17 14:57N 55°14' E 014°08'4 8.3
2018-Feb-17 14:25N 55°14' E 014°16'4 8.5
2018-Feb-17 13:57N 55°17' E 014°20'5 8.6
2018-Feb-17 13:25N 55°21' E 014°25'5 8.7
2018-Feb-17 12:53N 55°24' E 014°31'4 8.6
2018-Feb-17 12:23N 55°27' E 014°37'5 8.6
2018-Feb-17 11:46N 55°30' E 014°45'3 8.4
2018-Feb-17 11:21N 55°31' E 014°50'5 8.4
2018-Feb-17 10:44N 55°34' E 014°58'10 8.3
2018-Feb-17 09:35N 55°39' E 015°13'1 8.4
2018-Feb-17 09:31N 55°39' E 015°13'4 8.3
2018-Feb-17 09:01N 55°42' E 015°20'4 8.3
2018-Feb-17 08:30N 55°44' E 015°26'4 8.4
2018-Feb-17 08:00N 55°46' E 015°33'4 8.3
2018-Feb-17 07:30N 55°48' E 015°39'4 8.2
2018-Feb-17 07:00N 55°50' E 015°45'4 8.3
2018-Feb-17 06:30N 55°52' E 015°52'4 8.2
2018-Feb-17 06:00N 55°54' E 015°58'4 8.3
2018-Feb-17 05:31N 55°56' E 016°04'4 8.2
2018-Feb-17 05:00N 55°58' E 016°11'4 8.2
2018-Feb-17 04:30N 56°00' E 016°17'4 8.3
2018-Feb-17 04:01N 56°03' E 016°23'4 8.4
2018-Feb-17 03:31N 56°05' E 016°30'4 8.4
2018-Feb-17 03:00N 56°07' E 016°36'4 8.3
2018-Feb-17 02:30N 56°09' E 016°42'4 8.3
2018-Feb-17 02:01N 56°13' E 016°46'4 8.4
2018-Feb-17 01:30N 56°17' E 016°49'282 8.0
2018-Feb-15 14:21N 59°22' E 023°29'  

Dump ship's entire track history